Radiosonde details



Informationen :

Serial : D26002580
Type : Graw DFM
Frequency : 403.210MHz
Launchsite : Spokane
Nearest town : Chewelah, US (24.6km)

Altitude (Max) : 33837m at 2026-09-02 18:41:43
Speed (Max) : 156km/h at altitude 10358m

Average speed : 50km/h
Average ascent rate : 5m/s
Average descent rate : -9m/s
Ascent rate (Max) : 15.9m/s
Descent rate (Max): -37m/s

First frame :
WB7NNF at 2026-09-02 17:12:50 at altitude 4284m (OG: 4242m)
Last frame :
WB7NNF at 2026-09-02 19:29:04 at altitude 5722m (OG: 5680m)

Flighttime : 2h16m14s
Ascent time : 1h28m53s
Descent time : 47m21s
Uptime : -
Killtimer : -

Distance (Straight line distance): 83km

Distance (Route):


Frames : 373


Measurement :

Temperature : -16.1°C
Humidity : 0%
Pressure : 0hPa


Vertical profile (SkewT) :


Elevation profile :



Receiving stations :


Receiver Frames First received Last received
WB7NNF 373 2026-09-02 17:12:50 2026-09-02 19:29:04

Share per receiver :



All frames :


Receiver Date Latitude Longitude Direction Speed Altitude Climb Temperature Humidity Pressure Voltage Killtimer Uptime BKT XDATA
WB7NNF2026-09-02 19:29:0448.47750-117.57696341°55km/h5722m-8.0m/s-16.1°C0%0hPa0V00:00:0000:00:0000:00:00
WB7NNF2026-09-02 19:28:4348.47484-117.57524338°60km/h5893m-7.7m/s-17.1°C0%0hPa0V00:00:0000:00:0000:00:00
WB7NNF2026-09-02 19:28:2248.47185-117.57363342°57km/h6062m-7.8m/s-18.2°C0%0hPa0V00:00:0000:00:0000:00:00
WB7NNF2026-09-02 19:27:5948.46865-117.57179338°60km/h6246m-7.9m/s-19.6°C0%0hPa0V00:00:0000:00:0000:00:00
WB7NNF2026-09-02 19:27:2548.46413-117.56838332°58km/h6514m-7.6m/s-21.5°C0%0hPa0V00:00:0000:00:0000:00:00
WB7NNF2026-09-02 19:27:0348.46113-117.56596335°64km/h6688m-7.7m/s-22.6°C0%0hPa0V00:00:0000:00:0000:00:00
WB7NNF2026-09-02 19:26:4248.45804-117.56379335°66km/h6855m-7.7m/s-23.8°C0%0hPa0V00:00:0000:00:0000:00:00
WB7NNF2026-09-02 19:26:2148.45483-117.56154335°73km/h7013m-7.8m/s-25.0°C0%0hPa0V00:00:0000:00:0000:00:00
WB7NNF2026-09-02 19:26:0148.45138-117.55918335°69km/h7178m-8.1m/s-26.2°C0%0hPa0V00:00:0000:00:0000:00:00
WB7NNF2026-09-02 19:25:3948.44814-117.55666332°69km/h7338m-7.4m/s-27.5°C0%0hPa0V00:00:0000:00:0000:00:00
WB7NNF2026-09-02 19:25:1848.44468-117.55406336°68km/h7494m-7.2m/s-28.7°C0%0hPa0V00:00:0000:00:0000:00:00
WB7NNF2026-09-02 19:24:5748.44151-117.55206340°68km/h7629m-5.4m/s-29.7°C0%0hPa0V00:00:0000:00:0000:00:00
WB7NNF2026-09-02 19:24:3748.43823-117.55014339°66km/h7733m-4.8m/s-30.5°C0%0hPa0V00:00:0000:00:0000:00:00
WB7NNF2026-09-02 19:24:1648.43519-117.54843342°62km/h7830m-4.6m/s-31.3°C0%0hPa0V00:00:0000:00:0000:00:00
WB7NNF2026-09-02 19:23:5648.43221-117.54674339°58km/h7927m-4.6m/s-32.1°C0%0hPa0V00:00:0000:00:0000:00:00
WB7NNF2026-09-02 19:23:3548.42949-117.54492336°60km/h8018m-4.4m/s-32.8°C0%0hPa0V00:00:0000:00:0000:00:00
WB7NNF2026-09-02 19:23:1548.42661-117.54286335°60km/h8112m-4.5m/s-33.6°C0%0hPa0V00:00:0000:00:0000:00:00
WB7NNF2026-09-02 19:22:5448.42383-117.54084335°60km/h8200m-4.6m/s-34.4°C0%0hPa0V00:00:0000:00:0000:00:00
WB7NNF2026-09-02 19:22:3448.42095-117.53867335°60km/h8292m-4.3m/s-35.2°C0%0hPa0V00:00:0000:00:0000:00:00
WB7NNF2026-09-02 19:22:1348.41808-117.53651334°60km/h8384m-4.1m/s-35.9°C0%0hPa0V00:00:0000:00:0000:00:00
WB7NNF2026-09-02 19:21:5148.41513-117.53417333°60km/h8484m-4.8m/s-36.8°C0%0hPa0V00:00:0000:00:0000:00:00
WB7NNF2026-09-02 19:21:3048.41238-117.53198334°62km/h8577m-4.9m/s-37.5°C0%0hPa0V00:00:0000:00:0000:00:00
WB7NNF2026-09-02 19:21:1048.40938-117.52956333°66km/h8676m-4.8m/s-38.3°C0%0hPa0V00:00:0000:00:0000:00:00
WB7NNF2026-09-02 19:20:4948.40644-117.52730336°66km/h8770m-5.1m/s-39.1°C0%0hPa0V00:00:0000:00:0000:00:00
WB7NNF2026-09-02 19:20:2948.40311-117.52502335°71km/h8878m-5.5m/s-40.0°C0%0hPa0V00:00:0000:00:0000:00:00
WB7NNF2026-09-02 19:20:0848.39971-117.52246331°77km/h8971m-5.0m/s-40.7°C0%0hPa0V00:00:0000:00:0000:00:00
WB7NNF2026-09-02 19:19:4848.39614-117.51927330°78km/h9071m-4.8m/s-41.4°C0%0hPa0V00:00:0000:00:0000:00:00
WB7NNF2026-09-02 19:19:2748.39268-117.51616330°80km/h9170m-4.8m/s-42.3°C0%0hPa0V00:00:0000:00:0000:00:00
WB7NNF2026-09-02 19:19:0748.38900-117.51282329°82km/h9275m-5.0m/s-43.3°C0%0hPa0V00:00:0000:00:0000:00:00
WB7NNF2026-09-02 19:18:4648.38532-117.50926329°84km/h9381m-5.1m/s-44.2°C0%0hPa0V00:00:0000:00:0000:00:00
WB7NNF2026-09-02 19:18:2548.38168-117.50596330°84km/h9482m-5.2m/s-45.0°C0%0hPa0V00:00:0000:00:0000:00:00
WB7NNF2026-09-02 19:18:0548.37779-117.50258331°86km/h9588m-5.1m/s-45.8°C0%0hPa0V00:00:0000:00:0000:00:00
WB7NNF2026-09-02 19:17:4448.37392-117.49925331°91km/h9687m-4.9m/s-46.5°C0%0hPa0V00:00:0000:00:0000:00:00
WB7NNF2026-09-02 19:17:2448.36963-117.49570332°91km/h9792m-5.3m/s-47.2°C0%0hPa0V00:00:0000:00:0000:00:00
WB7NNF2026-09-02 19:17:0348.36551-117.49234333°95km/h9894m-5.2m/s-47.9°C0%0hPa0V00:00:0000:00:0000:00:00
WB7NNF2026-09-02 19:16:4348.36088-117.48875334°100km/h10001m-4.9m/s-48.7°C0%0hPa0V00:00:0000:00:0000:00:00
WB7NNF2026-09-02 19:16:2248.35619-117.48524335°108km/h10101m-4.7m/s-49.5°C0%0hPa0V00:00:0000:00:0000:00:00
WB7NNF2026-09-02 19:15:4148.34610-117.47863343°108km/h10320m-5.8m/s-50.7°C0%0hPa0V00:00:0000:00:0000:00:00
WB7NNF2026-09-02 19:15:2148.34060-117.47677356°106km/h10452m-5.6m/s-51.0°C0%0hPa0V00:00:0000:00:0000:00:00
WB7NNF2026-09-02 19:15:0048.33558-117.47640358°99km/h10576m-6.6m/s-52.1°C0%0hPa0V00:00:0000:00:0000:00:00
WB7NNF2026-09-02 19:14:4048.33022-117.47651108km/h10697m-6.5m/s-52.9°C0%0hPa0V00:00:0000:00:0000:00:00
WB7NNF2026-09-02 19:14:1948.32486-117.4774810°99km/h10822m-4.6m/s-53.8°C0%0hPa0V00:00:0000:00:0000:00:00
WB7NNF2026-09-02 19:13:5848.32001-117.4786410°95km/h10915m-3.8m/s-54.6°C0%0hPa0V00:00:0000:00:0000:00:00
WB7NNF2026-09-02 19:13:3748.31495-117.4796912°95km/h11025m-5.7m/s-55.5°C0%0hPa0V00:00:0000:00:0000:00:00
WB7NNF2026-09-02 19:13:1748.31026-117.4812312°93km/h11135m-4.9m/s-56.6°C0%0hPa0V00:00:0000:00:0000:00:00
WB7NNF2026-09-02 19:12:3648.30198-117.4845824°64km/h11355m-5.9m/s-54.5°C0%0hPa0V00:00:0000:00:0000:00:00
WB7NNF2026-09-02 19:12:1648.29922-117.4862020°49km/h11479m-5.7m/s-51.5°C0%0hPa0V00:00:0000:00:0000:00:00
WB7NNF2026-09-02 19:11:5548.29690-117.4870110°47km/h11596m-5.6m/s-51.6°C0%0hPa0V00:00:0000:00:0000:00:00
WB7NNF2026-09-02 19:11:3548.29450-117.48722355°46km/h11717m-5.7m/s-51.6°C0%0hPa0V00:00:0000:00:0000:00:00
WB7NNF2026-09-02 19:11:1448.29224-117.48688358°46km/h11835m-5.7m/s-51.7°C0%0hPa0V00:00:0000:00:0000:00:00
WB7NNF2026-09-02 19:10:5448.28993-117.48664359°44km/h11955m-5.2m/s-51.7°C0%0hPa0V00:00:0000:00:0000:00:00
WB7NNF2026-09-02 19:10:3348.28756-117.48660358°49km/h12065m-5.3m/s-51.0°C0%0hPa0V00:00:0000:00:0000:00:00
WB7NNF2026-09-02 19:10:1348.28477-117.4868258km/h12182m-5.6m/s-50.2°C0%0hPa0V00:00:0000:00:0000:00:00
WB7NNF2026-09-02 19:09:5248.28177-117.4876913°64km/h12299m-6.0m/s-50.0°C0%0hPa0V00:00:0000:00:0000:00:00
WB7NNF2026-09-02 19:09:3248.27835-117.4888317°66km/h12430m-6.2m/s-50.7°C0%0hPa0V00:00:0000:00:0000:00:00
WB7NNF2026-09-02 19:09:1148.27530-117.4903716°66km/h12558m-6.3m/s-50.4°C0%0hPa0V00:00:0000:00:0000:00:00
WB7NNF2026-09-02 19:08:5148.27184-117.4921719°73km/h12692m-6.0m/s-50.6°C0%0hPa0V00:00:0000:00:0000:00:00
WB7NNF2026-09-02 19:08:3048.26834-117.4939924°68km/h12824m-5.9m/s-50.0°C0%0hPa0V00:00:0000:00:0000:00:00
WB7NNF2026-09-02 19:08:0948.26518-117.4960125°64km/h12951m-6.0m/s-49.2°C0%0hPa0V00:00:0000:00:0000:00:00
WB7NNF2026-09-02 19:07:4948.26214-117.4975317°57km/h13073m-5.2m/s-47.7°C0%0hPa0V00:00:0000:00:0000:00:00
WB7NNF2026-09-02 19:07:2848.25907-117.4989919°69km/h13188m-5.5m/s-47.9°C0%0hPa0V00:00:0000:00:0000:00:00
WB7NNF2026-09-02 19:07:0848.25559-117.5007319°62km/h13308m-5.8m/s-48.3°C0%0hPa0V00:00:0000:00:0000:00:00
WB7NNF2026-09-02 19:06:4848.25261-117.5022722°58km/h13427m-5.6m/s-48.8°C0%0hPa0V00:00:0000:00:0000:00:00
WB7NNF2026-09-02 19:06:2748.24982-117.5038821°57km/h13557m-5.9m/s-49.2°C0%0hPa0V00:00:0000:00:0000:00:00
WB7NNF2026-09-02 19:05:4648.24441-117.5070516°58km/h13835m-6.8m/s-49.1°C0%0hPa0V00:00:0000:00:0000:00:00
WB7NNF2026-09-02 19:05:2548.24164-117.5084526°57km/h13972m-6.8m/s-49.6°C0%0hPa0V00:00:0000:00:0000:00:00
WB7NNF2026-09-02 19:05:0548.23911-117.5101525°47km/h14128m-7.2m/s-49.5°C0%0hPa0V00:00:0000:00:0000:00:00
WB7NNF2026-09-02 19:04:4448.23692-117.5113018°46km/h14279m-7.3m/s-48.7°C0%0hPa0V00:00:0000:00:0000:00:00
WB7NNF2026-09-02 19:04:2448.23470-117.5130435°53km/h14442m-7.0m/s-48.3°C0%0hPa0V00:00:0000:00:0000:00:00
WB7NNF2026-09-02 19:04:0348.23259-117.5151731°51km/h14600m-8.1m/s-48.1°C0%0hPa0V00:00:0000:00:0000:00:00
WB7NNF2026-09-02 19:03:4348.23010-117.5169731°51km/h14777m-7.2m/s-48.1°C0%0hPa0V00:00:0000:00:0000:00:00
WB7NNF2026-09-02 19:03:2248.22765-117.5189128°57km/h14942m-8.7m/s-48.4°C0%0hPa0V00:00:0000:00:0000:00:00
WB7NNF2026-09-02 19:03:0148.22538-117.5205422°42km/h15107m-8.6m/s-48.7°C0%0hPa0V00:00:0000:00:0000:00:00
WB7NNF2026-09-02 19:02:4148.22293-117.5219627°55km/h15281m-7.8m/s-48.9°C0%0hPa0V00:00:0000:00:0000:00:00
WB7NNF2026-09-02 19:02:2048.22034-117.5234118°64km/h15454m-7.2m/s-48.3°C0%0hPa0V00:00:0000:00:0000:00:00
WB7NNF2026-09-02 19:02:0048.21716-117.5250227°66km/h15617m-7.2m/s-48.3°C0%0hPa0V00:00:0000:00:0000:00:00
WB7NNF2026-09-02 19:01:3948.21477-117.5269931°46km/h15777m-6.6m/s-48.6°C0%0hPa0V00:00:0000:00:0000:00:00
WB7NNF2026-09-02 19:01:1948.21306-117.5287537°38km/h15932m-7.8m/s-48.4°C0%0hPa0V00:00:0000:00:0000:00:00
WB7NNF2026-09-02 19:00:5848.21118-117.5303423°46km/h16082m-6.7m/s-48.1°C0%0hPa0V00:00:0000:00:0000:00:00
WB7NNF2026-09-02 19:00:3848.20856-117.5318819°53km/h16240m-6.6m/s-48.9°C0%0hPa0V00:00:0000:00:0000:00:00
WB7NNF2026-09-02 19:00:1748.20576-117.5330826°55km/h16386m-9.9m/s-48.8°C0%0hPa0V00:00:0000:00:0000:00:00
WB7NNF2026-09-02 18:59:5748.20308-117.5354637°64km/h16537m-7.1m/s-48.0°C0%0hPa0V00:00:0000:00:0000:00:00
WB7NNF2026-09-02 18:59:3648.20090-117.5378337°49km/h16685m-7.8m/s-48.7°C0%0hPa0V00:00:0000:00:0000:00:00
WB7NNF2026-09-02 18:59:1648.19901-117.5396923°38km/h16844m-7.4m/s-48.3°C0%0hPa0V00:00:0000:00:0000:00:00
WB7NNF2026-09-02 18:58:5548.19689-117.5410128°47km/h17002m-8.1m/s-48.4°C0%0hPa0V00:00:0000:00:0000:00:00
WB7NNF2026-09-02 18:58:3548.19453-117.5420015°42km/h17174m-7.3m/s-48.2°C0%0hPa0V00:00:0000:00:0000:00:00
WB7NNF2026-09-02 18:58:1448.19241-117.5428540km/h17355m-8.5m/s-48.5°C0%0hPa0V00:00:0000:00:0000:00:00
WB7NNF2026-09-02 18:57:5248.19033-117.5437526°49km/h17537m-9.2m/s-48.9°C0%0hPa0V00:00:0000:00:0000:00:00
WB7NNF2026-09-02 18:57:3148.18817-117.5455239°42km/h17727m-8.4m/s-49.2°C0%0hPa0V00:00:0000:00:0000:00:00
WB7NNF2026-09-02 18:57:1148.18663-117.5468512°26km/h17919m-9.1m/s-50.2°C0%0hPa0V00:00:0000:00:0000:00:00
WB7NNF2026-09-02 18:56:5048.18545-117.5467726km/h18115m-9.4m/s-50.3°C0%0hPa0V00:00:0000:00:0000:00:00
WB7NNF2026-09-02 18:56:2948.18378-117.5470616°37km/h18306m-9.6m/s-51.2°C0%0hPa0V00:00:0000:00:0000:00:00
WB7NNF2026-09-02 18:56:0948.18154-117.5483224°51km/h18509m-9.5m/s-51.7°C0%0hPa0V00:00:0000:00:0000:00:00
WB7NNF2026-09-02 18:55:4748.17947-117.5506059°46km/h18721m-12.0m/s-50.8°C0%0hPa0V00:00:0000:00:0000:00:00
WB7NNF2026-09-02 18:55:2248.17778-117.5537644°44km/h18987m-10.4m/s-51.3°C0%0hPa0V00:00:0000:00:0000:00:00
WB7NNF2026-09-02 18:54:5248.17562-117.5561444°31km/h19298m-10.2m/s-50.4°C0%0hPa0V00:00:0000:00:0000:00:00
WB7NNF2026-09-02 18:54:3248.17452-117.5573022km/h19506m-9.7m/s-51.0°C0%0hPa0V00:00:0000:00:0000:00:00
WB7NNF2026-09-02 18:54:1048.17351-117.5576928°20km/h19742m-11.9m/s-52.2°C0%0hPa0V00:00:0000:00:0000:00:00
WB7NNF2026-09-02 18:53:4548.17226-117.5587540°13km/h20056m-12.3m/s-51.0°C0%0hPa0V00:00:0000:00:0000:00:00
WB7NNF2026-09-02 18:52:2748.16884-117.5613319°20km/h21046m-13.2m/s-52.9°C0%0hPa0V00:00:0000:00:0000:00:00
WB7NNF2026-09-02 18:52:0448.16772-117.5618825°20km/h21338m-13.3m/s-53.7°C0%0hPa0V00:00:0000:00:0000:00:00
WB7NNF2026-09-02 18:51:4448.16677-117.5635866°31km/h21626m-13.8m/s-52.2°C0%0hPa0V00:00:0000:00:0000:00:00
WB7NNF2026-09-02 18:51:2348.16679-117.56559106°20km/h21906m-14.1m/s-51.0°C0%0hPa0V00:00:0000:00:0000:00:00
WB7NNF2026-09-02 18:50:4248.16722-117.56670118°15km/h22498m-14.6m/s-51.9°C0%0hPa0V00:00:0000:00:0000:00:00
WB7NNF2026-09-02 18:50:2248.16749-117.56738291°5km/h22810m-15.1m/s-51.1°C0%0hPa0V00:00:0000:00:0000:00:00
WB7NNF2026-09-02 18:50:0148.16710-117.56682348°7km/h23117m-15.6m/s-51.0°C0%0hPa0V00:00:0000:00:0000:00:00
WB7NNF2026-09-02 18:49:4148.16675-117.56622282°16km/h23450m-15.7m/s-51.6°C0%0hPa0V00:00:0000:00:0000:00:00
WB7NNF2026-09-02 18:49:2048.16667-117.56490280°18km/h23770m-16.0m/s-52.0°C0%0hPa0V00:00:0000:00:0000:00:00
WB7NNF2026-09-02 18:48:3948.16599-117.56251330°31km/h24443m-16.4m/s-51.5°C0%0hPa0V00:00:0000:00:0000:00:00
WB7NNF2026-09-02 18:48:1948.16470-117.5619219°27km/h24799m-17.1m/s-51.4°C0%0hPa0V00:00:0000:00:0000:00:00
WB7NNF2026-09-02 18:47:5848.16380-117.5623611°18km/h25161m-17.1m/s-50.5°C0%0hPa0V00:00:0000:00:0000:00:00
WB7NNF2026-09-02 18:47:3748.16338-117.5627384°4km/h25507m-17.4m/s-49.7°C0%0hPa0V00:00:0000:00:0000:00:00
WB7NNF2026-09-02 18:47:1748.16331-117.56315118°9km/h25880m-18.1m/s-49.0°C0%0hPa0V00:00:0000:00:0000:00:00
WB7NNF2026-09-02 18:46:5648.16368-117.56315243°15km/h26252m-18.9m/s-49.0°C0%0hPa0V00:00:0000:00:0000:00:00
WB7NNF2026-09-02 18:46:3648.16375-117.56179306°16km/h26655m-19.7m/s-49.1°C0%0hPa0V00:00:0000:00:0000:00:00
WB7NNF2026-09-02 18:46:1548.16299-117.5615028°18km/h27044m-19.6m/s-49.0°C0%0hPa0V00:00:0000:00:0000:00:00
WB7NNF2026-09-02 18:45:5548.16192-117.5626258°27km/h27469m-19.6m/s-48.0°C0%0hPa0V00:00:0000:00:0000:00:00
WB7NNF2026-09-02 18:45:3448.16179-117.56353113°9km/h27884m-22.2m/s-47.1°C0%0hPa0V00:00:0000:00:0000:00:00
WB7NNF2026-09-02 18:45:1448.16241-117.56375207°22km/h28341m-22.2m/s-48.3°C0%0hPa0V00:00:0000:00:0000:00:00
WB7NNF2026-09-02 18:44:5348.16270-117.56360124°9km/h28808m-21.6m/s-48.0°C0%0hPa0V00:00:0000:00:0000:00:00
WB7NNF2026-09-02 18:44:3148.16300-117.56407163°5km/h29286m-22.7m/s-47.2°C0%0hPa0V00:00:0000:00:0000:00:00
WB7NNF2026-09-02 18:44:1048.16280-117.5644773°5km/h29785m-23.9m/s-45.5°C0%0hPa0V00:00:0000:00:0000:00:00
WB7NNF2026-09-02 18:43:4848.16282-117.56636107°24km/h30371m-28.7m/s-44.4°C0%0hPa0V00:00:0000:00:0000:00:00
WB7NNF2026-09-02 18:43:2748.16290-117.5681382°26km/h30891m-27.9m/s-43.8°C0%0hPa0V00:00:0000:00:0000:00:00
WB7NNF2026-09-02 18:43:0748.16328-117.56975215°9km/h31533m-36.3m/s-42.2°C0%0hPa0V00:00:0000:00:0000:00:00
WB7NNF2026-09-02 18:42:4548.16334-117.56909255°9km/h32179m-19.0m/s-41.3°C0%0hPa0V00:00:0000:00:0000:00:00
WB7NNF2026-09-02 18:42:2448.16314-117.56897249°13km/h32789m-37.0m/s-40.3°C0%0hPa0V00:00:0000:00:0000:00:00
WB7NNF2026-09-02 18:42:0348.16323-117.5691495°16km/h33487m-33.3m/s-38.9°C0%0hPa0V00:00:0000:00:0000:00:00
WB7NNF2026-09-02 18:41:4348.16283-117.5693880°55km/h33837m4.6m/s-38.6°C0%0hPa0V00:00:0000:00:0000:00:00
WB7NNF2026-09-02 18:41:2248.16295-117.57052105°9km/h33700m8.0m/s-38.5°C0%0hPa0V00:00:0000:00:0000:00:00
WB7NNF2026-09-02 18:40:2148.16444-117.5715368°20km/h33290m-0.0m/s-39.4°C0%0hPa0V00:00:0000:00:0000:00:00
WB7NNF2026-09-02 18:40:0048.16414-117.57123113°35km/h33158m15.9m/s-39.6°C0%0hPa0V00:00:0000:00:0000:00:00
WB7NNF2026-09-02 18:39:3848.16418-117.57170260°33km/h33017m8.6m/s-39.9°C0%0hPa0V00:00:0000:00:0000:00:00
WB7NNF2026-09-02 18:39:1748.16435-117.57166349°11km/h32899m10.8m/s-40.6°C0%0hPa0V00:00:0000:00:0000:00:00
WB7NNF2026-09-02 18:38:5748.16416-117.5717427km/h32771m5.1m/s-41.0°C0%0hPa0V00:00:0000:00:0000:00:00
WB7NNF2026-09-02 18:38:3648.16375-117.57155211°47km/h32648m10.6m/s-41.4°C0%0hPa0V00:00:0000:00:0000:00:00
WB7NNF2026-09-02 18:38:1648.16353-117.5712914°24km/h32514m8.1m/s-41.7°C0%0hPa0V00:00:0000:00:0000:00:00
WB7NNF2026-09-02 18:37:5548.16326-117.5715570°9km/h32386m8.1m/s-41.5°C0%0hPa0V00:00:0000:00:0000:00:00
WB7NNF2026-09-02 18:37:3548.16321-117.57147282°13km/h32246m3.8m/s-41.6°C0%0hPa0V00:00:0000:00:0000:00:00
WB7NNF2026-09-02 18:37:1448.16284-117.57095351°29km/h32093m3.3m/s-41.7°C0%0hPa0V00:00:0000:00:0000:00:00
WB7NNF2026-09-02 18:36:5248.16321-117.57075221°35km/h31951m11.2m/s-42.2°C0%0hPa0V00:00:0000:00:0000:00:00
WB7NNF2026-09-02 18:36:3248.16335-117.57043127°27km/h31810m6.2m/s-42.3°C0%0hPa0V00:00:0000:00:0000:00:00
WB7NNF2026-09-02 18:36:1148.16414-117.57027211°7km/h31662m2.9m/s-42.3°C0%0hPa0V00:00:0000:00:0000:00:00
WB7NNF2026-09-02 18:35:4948.16547-117.57074105°58km/h31520m0.1m/s-42.0°C0%0hPa0V00:00:0000:00:0000:00:00
WB7NNF2026-09-02 18:35:2948.16691-117.57146147°40km/h31392m10.6m/s-42.6°C0%0hPa0V00:00:0000:00:0000:00:00
WB7NNF2026-09-02 18:35:0748.16760-117.57377135°15km/h31244m9.9m/s-43.5°C0%0hPa0V00:00:0000:00:0000:00:00
WB7NNF2026-09-02 18:34:4748.16764-117.5757281°20km/h31113m4.6m/s-44.1°C0%0hPa0V00:00:0000:00:0000:00:00
WB7NNF2026-09-02 18:34:2448.16730-117.5782599°18km/h30970m7.6m/s-44.1°C0%0hPa0V00:00:0000:00:0000:00:00
WB7NNF2026-09-02 18:34:0448.16694-117.5797552°20km/h30839m4.9m/s-44.5°C0%0hPa0V00:00:0000:00:0000:00:00
WB7NNF2026-09-02 18:33:4348.16686-117.58179279°20km/h30707m4.5m/s-45.1°C0%0hPa0V00:00:0000:00:0000:00:00
WB7NNF2026-09-02 18:33:2148.16702-117.58343134°13km/h30567m9.1m/s-44.9°C0%0hPa0V00:00:0000:00:0000:00:00
WB7NNF2026-09-02 18:32:5348.16712-117.58485240°40km/h30375m1.7m/s-44.7°C0%0hPa0V00:00:0000:00:0000:00:00
WB7NNF2026-09-02 18:32:3248.16696-117.58620238°24km/h30236m5.3m/s-45.1°C0%0hPa0V00:00:0000:00:0000:00:00
WB7NNF2026-09-02 18:32:1248.16684-117.5881064°37km/h30100m4.0m/s-44.9°C0%0hPa0V00:00:0000:00:0000:00:00
WB7NNF2026-09-02 18:31:5148.16666-117.58942107°29km/h29967m15.5m/s-46.0°C0%0hPa0V00:00:0000:00:0000:00:00
WB7NNF2026-09-02 18:31:2948.16630-117.59010104°13km/h29824m1.8m/s-46.9°C0%0hPa0V00:00:0000:00:0000:00:00
WB7NNF2026-09-02 18:31:0848.16584-117.5914693°20km/h29676m0.6m/s-47.1°C0%0hPa0V00:00:0000:00:0000:00:00
WB7NNF2026-09-02 18:30:4448.16508-117.59144361°40km/h29514m-3.1m/s-47.8°C0%0hPa0V00:00:0000:00:0000:00:00
WB7NNF2026-09-02 18:30:2348.16498-117.59144153°9km/h29376m4.6m/s-48.2°C0%0hPa0V00:00:0000:00:0000:00:00
WB7NNF2026-09-02 18:29:4248.16525-117.59255324°37km/h29109m-1.0m/s-48.6°C0%0hPa0V00:00:0000:00:0000:00:00
WB7NNF2026-09-02 18:29:2248.16521-117.59327322°42km/h28967m-1.7m/s-48.3°C0%0hPa0V00:00:0000:00:0000:00:00
WB7NNF2026-09-02 18:29:0148.16517-117.59407290°37km/h28824m7.6m/s-48.1°C0%0hPa0V00:00:0000:00:0000:00:00
WB7NNF2026-09-02 18:28:4148.16510-117.59420279°37km/h28684m-1.0m/s-47.7°C0%0hPa0V00:00:0000:00:0000:00:00
WB7NNF2026-09-02 18:28:2048.16497-117.59411268°37km/h28555m4.6m/s-47.5°C0%0hPa0V00:00:0000:00:0000:00:00
WB7NNF2026-09-02 18:27:5648.16516-117.59321275°42km/h28404m5.5m/s-47.5°C0%0hPa0V00:00:0000:00:0000:00:00
WB7NNF2026-09-02 18:27:3548.16592-117.59200220°55km/h28269m10.0m/s-47.1°C0%0hPa0V00:00:0000:00:0000:00:00
WB7NNF2026-09-02 18:27:1048.16710-117.59171331°24km/h28113m12.9m/s-46.8°C0%0hPa0V00:00:0000:00:0000:00:00
WB7NNF2026-09-02 18:26:4948.16765-117.59180248°42km/h27977m5.0m/s-46.4°C0%0hPa0V00:00:0000:00:0000:00:00
WB7NNF2026-09-02 18:26:2848.16766-117.59242178°22km/h27843m4.3m/s-46.2°C0%0hPa0V00:00:0000:00:0000:00:00
WB7NNF2026-09-02 18:26:0648.16795-117.5932355°40km/h27700m7.3m/s-46.5°C0%0hPa0V00:00:0000:00:0000:00:00
WB7NNF2026-09-02 18:25:4548.16769-117.5941152°26km/h27569m8.5m/s-46.4°C0%0hPa0V00:00:0000:00:0000:00:00
WB7NNF2026-09-02 18:25:2548.16780-117.59516108°49km/h27431m5.0m/s-46.8°C0%0hPa0V00:00:0000:00:0000:00:00
WB7NNF2026-09-02 18:25:0448.16705-117.5963795°51km/h27304m7.4m/s-47.6°C0%0hPa0V00:00:0000:00:0000:00:00
WB7NNF2026-09-02 18:24:4448.16592-117.5975345°42km/h27171m0.9m/s-48.1°C0%0hPa0V00:00:0000:00:0000:00:00
WB7NNF2026-09-02 18:24:2348.16491-117.5984054°40km/h27037m3.7m/s-48.8°C0%0hPa0V00:00:0000:00:0000:00:00
WB7NNF2026-09-02 18:24:0148.16380-117.59853340°46km/h26900m-0.6m/s-48.9°C0%0hPa0V00:00:0000:00:0000:00:00
WB7NNF2026-09-02 18:23:4048.16348-117.59820228°42km/h26771m2.9m/s-49.4°C0%0hPa0V00:00:0000:00:0000:00:00
WB7NNF2026-09-02 18:23:1848.16327-117.59744319°37km/h26633m-1.6m/s-49.3°C0%0hPa0V00:00:0000:00:0000:00:00
WB7NNF2026-09-02 18:22:5448.16345-117.596120km/h26493m3.5m/s-49.8°C0%0hPa0V00:00:0000:00:0000:00:00
WB7NNF2026-09-02 18:22:3348.16382-117.59442231°53km/h26353m-2.0m/s-49.6°C0%0hPa0V00:00:0000:00:0000:00:00
WB7NNF2026-09-02 18:22:1248.16447-117.59386159°38km/h26237m6.7m/s-49.5°C0%0hPa0V00:00:0000:00:0000:00:00
WB7NNF2026-09-02 18:21:5248.16489-117.59415284°40km/h26105m-0.3m/s-50.0°C0%0hPa0V00:00:0000:00:0000:00:00
WB7NNF2026-09-02 18:21:2948.16523-117.5946171°40km/h25968m11.7m/s-49.9°C0%0hPa0V00:00:0000:00:0000:00:00
WB7NNF2026-09-02 18:21:0948.16509-117.59469301°33km/h25842m7.6m/s-49.8°C0%0hPa0V00:00:0000:00:0000:00:00
WB7NNF2026-09-02 18:20:4748.16502-117.5945274°26km/h25701m3.6m/s-49.6°C0%0hPa0V00:00:0000:00:0000:00:00
WB7NNF2026-09-02 18:20:2648.16484-117.59420297°35km/h25565m5.6m/s-49.9°C0%0hPa0V00:00:0000:00:0000:00:00
WB7NNF2026-09-02 18:20:0448.16488-117.59384229°33km/h25447m4.3m/s-49.5°C0%0hPa0V00:00:0000:00:0000:00:00
WB7NNF2026-09-02 18:19:4348.16468-117.5939122°58km/h25315m9.6m/s-50.2°C0%0hPa0V00:00:0000:00:0000:00:00
WB7NNF2026-09-02 18:19:2348.16362-117.59367301°20km/h25182m10.6m/s-50.6°C0%0hPa0V00:00:0000:00:0000:00:00
WB7NNF2026-09-02 18:18:4248.16196-117.5931650°35km/h24933m8.7m/s-51.0°C0%0hPa0V00:00:0000:00:0000:00:00
WB7NNF2026-09-02 18:18:2148.16064-117.59286308°49km/h24806m0.2m/s-50.9°C0%0hPa0V00:00:0000:00:0000:00:00
WB7NNF2026-09-02 18:17:5548.15892-117.5919618°4km/h24663m4.5m/s-50.8°C0%0hPa0V00:00:0000:00:0000:00:00
WB7NNF2026-09-02 18:17:3448.15769-117.59091311°51km/h24539m2.5m/s-50.3°C0%0hPa0V00:00:0000:00:0000:00:00
WB7NNF2026-09-02 18:17:1248.15674-117.58936335°13km/h24403m6.4m/s-50.6°C0%0hPa0V00:00:0000:00:0000:00:00
WB7NNF2026-09-02 18:16:5148.15588-117.5878724km/h24290m5.0m/s-50.0°C0%0hPa0V00:00:0000:00:0000:00:00
WB7NNF2026-09-02 18:16:3148.15547-117.58619242°46km/h24169m0.8m/s-50.2°C0%0hPa0V00:00:0000:00:0000:00:00
WB7NNF2026-09-02 18:16:1048.15577-117.58514128°15km/h24060m7.1m/s-50.6°C0%0hPa0V00:00:0000:00:0000:00:00
WB7NNF2026-09-02 18:15:5048.15578-117.58466287°49km/h23936m0.6m/s-51.4°C0%0hPa0V00:00:0000:00:0000:00:00
WB7NNF2026-09-02 18:15:2948.15574-117.58377184°27km/h23816m2.3m/s-51.7°C0%0hPa0V00:00:0000:00:0000:00:00
WB7NNF2026-09-02 18:15:0948.15558-117.58308285°49km/h23693m2.9m/s-51.5°C0%0hPa0V00:00:0000:00:0000:00:00
WB7NNF2026-09-02 18:14:4848.15558-117.58236270°44km/h23571m2.1m/s-51.7°C0%0hPa0V00:00:0000:00:0000:00:00
WB7NNF2026-09-02 18:14:2848.15586-117.58171118°26km/h23442m8.8m/s-51.6°C0%0hPa0V00:00:0000:00:0000:00:00
WB7NNF2026-09-02 18:14:0748.15580-117.58150353°42km/h23316m2.9m/s-51.6°C0%0hPa0V00:00:0000:00:0000:00:00
WB7NNF2026-09-02 18:13:4748.15556-117.58156250°27km/h23187m9.4m/s-51.4°C0%0hPa0V00:00:0000:00:0000:00:00
WB7NNF2026-09-02 18:13:2648.15560-117.58139182°27km/h23063m0.4m/s-51.2°C0%0hPa0V00:00:0000:00:0000:00:00
WB7NNF2026-09-02 18:13:0648.15550-117.5803716°31km/h22940m6.9m/s-51.7°C0%0hPa0V00:00:0000:00:0000:00:00
WB7NNF2026-09-02 18:12:4548.15580-117.57985234°31km/h22819m7.2m/s-51.1°C0%0hPa0V00:00:0000:00:0000:00:00
WB7NNF2026-09-02 18:12:2448.15651-117.58024104°26km/h22719m4.2m/s-51.2°C0%0hPa0V00:00:0000:00:0000:00:00
WB7NNF2026-09-02 18:12:0448.15671-117.58143277°20km/h22606m9.1m/s-51.7°C0%0hPa0V00:00:0000:00:0000:00:00
WB7NNF2026-09-02 18:11:4348.15695-117.58247160°35km/h22494m1.0m/s-51.9°C0%0hPa0V00:00:0000:00:0000:00:00
WB7NNF2026-09-02 18:11:2348.15721-117.5835415°38km/h22378m9.2m/s-52.4°C0%0hPa0V00:00:0000:00:0000:00:00
WB7NNF2026-09-02 18:11:0248.15714-117.58396270°18km/h22269m2.0m/s-52.3°C0%0hPa0V00:00:0000:00:0000:00:00
WB7NNF2026-09-02 18:10:4248.15746-117.58410187°33km/h22154m3.9m/s-51.6°C0%0hPa0V00:00:0000:00:0000:00:00
WB7NNF2026-09-02 18:10:2148.15761-117.58483355°27km/h22034m3.8m/s-51.3°C0%0hPa0V00:00:0000:00:0000:00:00
WB7NNF2026-09-02 18:09:5948.15765-117.5861196°58km/h21911m6.3m/s-51.1°C0%0hPa0V00:00:0000:00:0000:00:00
WB7NNF2026-09-02 18:09:3848.15753-117.5882978°55km/h21803m2.0m/s-51.1°C0%0hPa0V00:00:0000:00:0000:00:00
WB7NNF2026-09-02 18:09:1848.15730-117.5904584°18km/h21697m5.9m/s-52.6°C0%0hPa0V00:00:0000:00:0000:00:00
WB7NNF2026-09-02 18:08:5748.15650-117.5927651°75km/h21589m7.0m/s-53.2°C0%0hPa0V00:00:0000:00:0000:00:00
WB7NNF2026-09-02 18:08:3748.15540-117.59465340°18km/h21481m8.3m/s-53.3°C0%0hPa0V00:00:0000:00:0000:00:00
WB7NNF2026-09-02 18:08:1648.15470-117.5959550°27km/h21367m7.0m/s-53.5°C0%0hPa0V00:00:0000:00:0000:00:00
WB7NNF2026-09-02 18:07:5448.15375-117.5964465°37km/h21244m9.4m/s-53.1°C0%0hPa0V00:00:0000:00:0000:00:00
WB7NNF2026-09-02 18:07:3348.15298-117.59677358°37km/h21147m3.5m/s-52.7°C0%0hPa0V00:00:0000:00:0000:00:00
WB7NNF2026-09-02 18:07:1348.15242-117.59641127°24km/h21026m1.1m/s-51.8°C0%0hPa0V00:00:0000:00:0000:00:00
WB7NNF2026-09-02 18:06:5148.15190-117.59654327°31km/h20891m0.1m/s-51.1°C0%0hPa0V00:00:0000:00:0000:00:00
WB7NNF2026-09-02 18:06:3048.15135-117.5970962°27km/h20768m5.1m/s-51.1°C0%0hPa0V00:00:0000:00:0000:00:00
WB7NNF2026-09-02 18:06:0948.15071-117.5982330°46km/h20655m5.1m/s-52.2°C0%0hPa0V00:00:0000:00:0000:00:00
WB7NNF2026-09-02 18:05:4748.14932-117.5993029°33km/h20521m8.2m/s-52.5°C0%0hPa0V00:00:0000:00:0000:00:00
WB7NNF2026-09-02 18:05:2648.14810-117.59942320°20km/h20416m4.2m/s-52.1°C0%0hPa0V00:00:0000:00:0000:00:00
WB7NNF2026-09-02 18:05:0648.14700-117.5999291°35km/h20296m4.0m/s-51.7°C0%0hPa0V00:00:0000:00:0000:00:00
WB7NNF2026-09-02 18:04:4548.14638-117.60062348°35km/h20188m-0.2m/s-51.4°C0%0hPa0V00:00:0000:00:0000:00:00
WB7NNF2026-09-02 18:04:2548.14560-117.6018385°44km/h20084m4.1m/s-51.3°C0%0hPa0V00:00:0000:00:0000:00:00
WB7NNF2026-09-02 18:04:0348.14430-117.6029759°29km/h19978m2.3m/s-51.8°C0%0hPa0V00:00:0000:00:0000:00:00
WB7NNF2026-09-02 18:03:2248.14214-117.6043219°13km/h19755m4.5m/s-52.5°C0%0hPa0V00:00:0000:00:0000:00:00
WB7NNF2026-09-02 18:03:0148.14134-117.6039846km/h19650m0.6m/s-52.1°C0%0hPa0V00:00:0000:00:0000:00:00
WB7NNF2026-09-02 18:02:4048.14072-117.60412184°18km/h19544m7.3m/s-51.8°C0%0hPa0V00:00:0000:00:0000:00:00
WB7NNF2026-09-02 18:02:2048.14002-117.6047536°55km/h19431m4.7m/s-51.1°C0%0hPa0V00:00:0000:00:0000:00:00
WB7NNF2026-09-02 18:01:5948.13920-117.6057456°31km/h19330m6.0m/s-50.5°C0%0hPa0V00:00:0000:00:0000:00:00
WB7NNF2026-09-02 18:01:3948.13832-117.6069853°37km/h19220m7.2m/s-50.1°C0%0hPa0V00:00:0000:00:0000:00:00
WB7NNF2026-09-02 18:01:1848.13738-117.6082728°11km/h19120m2.4m/s-50.6°C0%0hPa0V00:00:0000:00:0000:00:00
WB7NNF2026-09-02 18:00:3748.13455-117.6119984°68km/h18907m4.1m/s-50.9°C0%0hPa0V00:00:0000:00:0000:00:00
WB7NNF2026-09-02 18:00:1648.13316-117.6144539°24km/h18808m6.7m/s-51.6°C0%0hPa0V00:00:0000:00:0000:00:00
WB7NNF2026-09-02 17:59:5648.13145-117.6169267°53km/h18707m0.6m/s-52.4°C0%0hPa0V00:00:0000:00:0000:00:00
WB7NNF2026-09-02 17:59:3548.12943-117.6189016°77km/h18606m0.4m/s-52.4°C0%0hPa0V00:00:0000:00:0000:00:00
WB7NNF2026-09-02 17:59:1148.12659-117.6207638°58km/h18489m5.0m/s-52.2°C0%0hPa0V00:00:0000:00:0000:00:00
WB7NNF2026-09-02 17:58:5148.12452-117.6217713°60km/h18384m8.0m/s-51.4°C0%0hPa0V00:00:0000:00:0000:00:00
WB7NNF2026-09-02 17:58:3048.12255-117.62238352°18km/h18284m4.2m/s-51.4°C0%0hPa0V00:00:0000:00:0000:00:00
WB7NNF2026-09-02 17:58:1048.12083-117.62266350°5km/h18179m1.7m/s-50.9°C0%0hPa0V00:00:0000:00:0000:00:00
WB7NNF2026-09-02 17:57:4948.11954-117.6226819°35km/h18082m6.4m/s-50.3°C0%0hPa0V00:00:0000:00:0000:00:00
WB7NNF2026-09-02 17:57:2748.11856-117.6234257°24km/h17963m0.5m/s-50.4°C0%0hPa0V00:00:0000:00:0000:00:00
WB7NNF2026-09-02 17:57:0648.11732-117.6245124°40km/h17867m6.1m/s-50.2°C0%0hPa0V00:00:0000:00:0000:00:00
WB7NNF2026-09-02 17:56:4648.11550-117.6257946km/h17760m3.5m/s-50.0°C0%0hPa0V00:00:0000:00:0000:00:00
WB7NNF2026-09-02 17:56:2548.11324-117.6270638°82km/h17655m3.3m/s-49.9°C0%0hPa0V00:00:0000:00:0000:00:00
WB7NNF2026-09-02 17:56:0548.11086-117.6281221°35km/h17555m5.5m/s-49.2°C0%0hPa0V00:00:0000:00:0000:00:00
WB7NNF2026-09-02 17:55:4448.10880-117.62902350°33km/h17448m3.1m/s-49.2°C0%0hPa0V00:00:0000:00:0000:00:00
WB7NNF2026-09-02 17:55:2348.10655-117.6297722°46km/h17350m4.8m/s-49.2°C0%0hPa0V00:00:0000:00:0000:00:00
WB7NNF2026-09-02 17:55:0348.10412-117.6303144°60km/h17246m6.4m/s-48.6°C0%0hPa0V00:00:0000:00:0000:00:00
WB7NNF2026-09-02 17:54:4248.10202-117.63105352°33km/h17148m2.7m/s-48.5°C0%0hPa0V00:00:0000:00:0000:00:00
WB7NNF2026-09-02 17:54:2248.09984-117.6315119°44km/h17042m6.6m/s-48.2°C0%0hPa0V00:00:0000:00:0000:00:00
WB7NNF2026-09-02 17:54:0148.09773-117.63196352°33km/h16945m4.1m/s-48.1°C0%0hPa0V00:00:0000:00:0000:00:00
WB7NNF2026-09-02 17:53:4148.09545-117.6329329km/h16850m5.1m/s-48.4°C0%0hPa0V00:00:0000:00:0000:00:00
WB7NNF2026-09-02 17:53:2048.09375-117.6343535°37km/h16763m6.3m/s-48.9°C0%0hPa0V00:00:0000:00:0000:00:00
WB7NNF2026-09-02 17:53:0048.09182-117.6362133°49km/h16673m4.8m/s-48.8°C0%0hPa0V00:00:0000:00:0000:00:00
WB7NNF2026-09-02 17:52:3948.08965-117.6386047°77km/h16591m1.2m/s-49.5°C0%0hPa0V00:00:0000:00:0000:00:00
WB7NNF2026-09-02 17:52:1948.08717-117.6410930°49km/h16495m4.9m/s-48.9°C0%0hPa0V00:00:0000:00:0000:00:00
WB7NNF2026-09-02 17:51:5848.08479-117.6429844km/h16407m2.0m/s-49.6°C0%0hPa0V00:00:0000:00:0000:00:00
WB7NNF2026-09-02 17:51:3848.08224-117.64413342°46km/h16309m1.7m/s-49.8°C0%0hPa0V00:00:0000:00:0000:00:00
WB7NNF2026-09-02 17:51:1748.07978-117.6454021°40km/h16211m5.6m/s-49.2°C0%0hPa0V00:00:0000:00:0000:00:00
WB7NNF2026-09-02 17:50:5648.07792-117.6470349°42km/h16117m5.4m/s-48.8°C0%0hPa0V00:00:0000:00:0000:00:00
WB7NNF2026-09-02 17:50:3648.07633-117.6489949°66km/h16015m2.9m/s-49.1°C0%0hPa0V00:00:0000:00:0000:00:00
WB7NNF2026-09-02 17:49:5548.07233-117.6531716°60km/h15817m5.7m/s-48.4°C0%0hPa0V00:00:0000:00:0000:00:00
WB7NNF2026-09-02 17:49:3448.06984-117.6553524°38km/h15722m3.0m/s-48.7°C0%0hPa0V00:00:0000:00:0000:00:00
WB7NNF2026-09-02 17:49:1448.06677-117.6568826°44km/h15620m3.0m/s-48.5°C0%0hPa0V00:00:0000:00:0000:00:00
WB7NNF2026-09-02 17:48:5348.06411-117.6579024°69km/h15526m2.9m/s-49.0°C0%0hPa0V00:00:0000:00:0000:00:00
WB7NNF2026-09-02 17:48:3348.06156-117.6583713°62km/h15425m3.3m/s-49.1°C0%0hPa0V00:00:0000:00:0000:00:00
WB7NNF2026-09-02 17:48:1248.05912-117.6595817°68km/h15324m1.2m/s-48.5°C0%0hPa0V00:00:0000:00:0000:00:00
WB7NNF2026-09-02 17:47:4848.05632-117.6613229°31km/h15208m4.9m/s-49.0°C0%0hPa0V00:00:0000:00:0000:00:00
WB7NNF2026-09-02 17:47:2748.05427-117.66227358°37km/h15110m3.2m/s-48.6°C0%0hPa0V00:00:0000:00:0000:00:00
WB7NNF2026-09-02 17:47:0748.05217-117.6628320°42km/h15010m5.8m/s-48.5°C0%0hPa0V00:00:0000:00:0000:00:00
WB7NNF2026-09-02 17:46:4548.04998-117.6638515°38km/h14904m7.7m/s-48.8°C0%0hPa0V00:00:0000:00:0000:00:00
WB7NNF2026-09-02 17:46:2448.04779-117.6651947°62km/h14809m4.6m/s-48.4°C0%0hPa0V00:00:0000:00:0000:00:00
WB7NNF2026-09-02 17:46:0348.04552-117.6668351°53km/h14709m2.8m/s-48.7°C0%0hPa0V00:00:0000:00:0000:00:00
WB7NNF2026-09-02 17:45:4348.04360-117.6686649°55km/h14609m5.5m/s-49.0°C0%0hPa0V00:00:0000:00:0000:00:00
WB7NNF2026-09-02 17:45:2248.04120-117.6708143°64km/h14508m4.4m/s-49.4°C0%0hPa0V00:00:0000:00:0000:00:00
WB7NNF2026-09-02 17:45:0048.03873-117.6726525°60km/h14397m5.3m/s-50.1°C0%0hPa0V00:00:0000:00:0000:00:00
WB7NNF2026-09-02 17:44:3848.03559-117.6743810°55km/h14293m5.3m/s-49.8°C0%0hPa0V00:00:0000:00:0000:00:00
WB7NNF2026-09-02 17:44:1748.03263-117.6761323°51km/h14205m4.3m/s-49.5°C0%0hPa0V00:00:0000:00:0000:00:00
WB7NNF2026-09-02 17:43:5748.02945-117.6782526°53km/h14113m5.5m/s-49.5°C0%0hPa0V00:00:0000:00:0000:00:00
WB7NNF2026-09-02 17:43:3648.02642-117.6801929°57km/h14025m4.1m/s-48.8°C0%0hPa0V00:00:0000:00:0000:00:00
WB7NNF2026-09-02 17:43:1548.02351-117.6819139°69km/h13937m3.0m/s-48.3°C0%0hPa0V00:00:0000:00:0000:00:00
WB7NNF2026-09-02 17:42:5248.02042-117.6833666km/h13839m4.2m/s-48.2°C0%0hPa0V00:00:0000:00:0000:00:00
WB7NNF2026-09-02 17:42:3148.01760-117.6838753km/h13757m4.9m/s-48.5°C0%0hPa0V00:00:0000:00:0000:00:00
WB7NNF2026-09-02 17:42:0648.01425-117.6848217°58km/h13656m6.1m/s-48.8°C0%0hPa0V00:00:0000:00:0000:00:00
WB7NNF2026-09-02 17:41:4648.01145-117.6859730°51km/h13570m2.7m/s-48.3°C0%0hPa0V00:00:0000:00:0000:00:00
WB7NNF2026-09-02 17:41:2548.00872-117.6871015°35km/h13483m5.1m/s-48.4°C0%0hPa0V00:00:0000:00:0000:00:00
WB7NNF2026-09-02 17:41:0548.00630-117.6884230°38km/h13390m6.4m/s-49.0°C0%0hPa0V00:00:0000:00:0000:00:00
WB7NNF2026-09-02 17:40:4448.00399-117.6901220°66km/h13301m3.3m/s-49.0°C0%0hPa0V00:00:0000:00:0000:00:00
WB7NNF2026-09-02 17:40:2248.00167-117.6917919°26km/h13194m4.3m/s-49.8°C0%0hPa0V00:00:0000:00:0000:00:00
WB7NNF2026-09-02 17:40:0147.99949-117.6933737°55km/h13098m3.7m/s-49.6°C0%0hPa0V00:00:0000:00:0000:00:00
WB7NNF2026-09-02 17:39:4147.99669-117.6949828°69km/h12999m4.5m/s-49.2°C0%0hPa0V00:00:0000:00:0000:00:00
WB7NNF2026-09-02 17:39:2047.99366-117.6965826°64km/h12907m6.0m/s-49.2°C0%0hPa0V00:00:0000:00:0000:00:00
WB7NNF2026-09-02 17:39:0047.99051-117.6979016°55km/h12812m4.8m/s-50.0°C0%0hPa0V00:00:0000:00:0000:00:00
WB7NNF2026-09-02 17:38:3947.98755-117.6990268km/h12717m3.9m/s-50.3°C0%0hPa0V00:00:0000:00:0000:00:00
WB7NNF2026-09-02 17:38:1947.98406-117.7000712°73km/h12617m4.3m/s-49.9°C0%0hPa0V00:00:0000:00:0000:00:00
WB7NNF2026-09-02 17:37:5847.98095-117.7006217°77km/h12521m4.7m/s-50.3°C0%0hPa0V00:00:0000:00:0000:00:00
WB7NNF2026-09-02 17:37:3847.97783-117.7015758km/h12421m5.7m/s-49.9°C0%0hPa0V00:00:0000:00:0000:00:00
WB7NNF2026-09-02 17:37:1747.97485-117.70261357°60km/h12329m5.4m/s-49.6°C0%0hPa0V00:00:0000:00:0000:00:00
WB7NNF2026-09-02 17:36:5747.97175-117.7034755km/h12229m3.5m/s-49.9°C0%0hPa0V00:00:0000:00:0000:00:00
WB7NNF2026-09-02 17:36:3647.96886-117.7037455km/h12125m3.8m/s-50.3°C0%0hPa0V00:00:0000:00:0000:00:00
WB7NNF2026-09-02 17:36:1647.96652-117.70360341°55km/h12029m6.5m/s-50.9°C0%0hPa0V00:00:0000:00:0000:00:00
WB7NNF2026-09-02 17:35:5547.96433-117.70360357°47km/h11924m3.1m/s-50.7°C0%0hPa0V00:00:0000:00:0000:00:00
WB7NNF2026-09-02 17:35:3447.96214-117.7040437km/h11830m3.6m/s-50.8°C0%0hPa0V00:00:0000:00:0000:00:00
WB7NNF2026-09-02 17:35:1447.95977-117.7045926°44km/h11728m6.6m/s-51.3°C0%0hPa0V00:00:0000:00:0000:00:00
WB7NNF2026-09-02 17:34:5347.95751-117.7050438km/h11641m4.3m/s-50.8°C0%0hPa0V00:00:0000:00:0000:00:00
WB7NNF2026-09-02 17:34:3347.95514-117.7053611°46km/h11556m4.8m/s-51.2°C0%0hPa0V00:00:0000:00:0000:00:00
WB7NNF2026-09-02 17:34:1247.95278-117.7061813°66km/h11486m2.7m/s-53.2°C0%0hPa0V00:00:0000:00:0000:00:00
WB7NNF2026-09-02 17:33:5247.94995-117.7078021°78km/h11406m3.6m/s-53.0°C0%0hPa0V00:00:0000:00:0000:00:00
WB7NNF2026-09-02 17:33:3147.94690-117.7097610°71km/h11330m2.8m/s-52.5°C0%0hPa0V00:00:0000:00:0000:00:00
WB7NNF2026-09-02 17:33:1147.94348-117.7118112°73km/h11211m5.9m/s-54.5°C0%0hPa0V00:00:0000:00:0000:00:00
WB7NNF2026-09-02 17:32:5047.93846-117.7134515°119km/h11069m6.6m/s-54.7°C0%0hPa0V00:00:0000:00:0000:00:00
WB7NNF2026-09-02 17:32:3047.93253-117.7140913°131km/h10937m6.8m/s-54.3°C0%0hPa0V00:00:0000:00:0000:00:00
WB7NNF2026-09-02 17:32:0947.92717-117.71499355°137km/h10804m8.2m/s-53.4°C0%0hPa0V00:00:0000:00:0000:00:00
WB7NNF2026-09-02 17:31:4947.92093-117.71441359°128km/h10644m8.8m/s-52.7°C0%0hPa0V00:00:0000:00:0000:00:00
WB7NNF2026-09-02 17:31:2847.91428-117.71310342°108km/h10494m7.7m/s-51.4°C0%0hPa0V00:00:0000:00:0000:00:00
WB7NNF2026-09-02 17:31:0647.90842-117.71131356°153km/h10358m6.3m/s-50.3°C0%0hPa0V00:00:0000:00:0000:00:00
WB7NNF2026-09-02 17:30:4547.90169-117.70780334°142km/h10210m4.6m/s-50.6°C0%0hPa0V00:00:0000:00:0000:00:00
WB7NNF2026-09-02 17:30:2347.89531-117.70374342°137km/h10084m3.9m/s-49.8°C0%0hPa0V00:00:0000:00:0000:00:00
WB7NNF2026-09-02 17:29:4247.88290-117.69531341°139km/h9871m3.8m/s-48.3°C0%0hPa0V00:00:0000:00:0000:00:00
WB7NNF2026-09-02 17:29:1947.87661-117.69150336°111km/h9776m4.4m/s-47.6°C0%0hPa0V00:00:0000:00:0000:00:00
WB7NNF2026-09-02 17:28:5947.87075-117.68800337°133km/h9688m3.9m/s-46.9°C0%0hPa0V00:00:0000:00:0000:00:00
WB7NNF2026-09-02 17:28:3747.86516-117.68485346°104km/h9594m5.4m/s-46.4°C0%0hPa0V00:00:0000:00:0000:00:00
WB7NNF2026-09-02 17:28:1647.85982-117.68200338°120km/h9481m4.2m/s-45.5°C0%0hPa0V00:00:0000:00:0000:00:00
WB7NNF2026-09-02 17:27:5647.85484-117.67914340°111km/h9387m5.7m/s-44.6°C0%0hPa0V00:00:0000:00:0000:00:00
WB7NNF2026-09-02 17:27:3547.85023-117.67643338°99km/h9292m5.6m/s-43.9°C0%0hPa0V00:00:0000:00:0000:00:00
WB7NNF2026-09-02 17:27:1447.84568-117.67392342°104km/h9187m5.9m/s-43.3°C0%0hPa0V00:00:0000:00:0000:00:00
WB7NNF2026-09-02 17:26:5447.84127-117.67176343°100km/h9087m4.8m/s-42.5°C0%0hPa0V00:00:0000:00:0000:00:00
WB7NNF2026-09-02 17:26:3347.83690-117.66971332°95km/h8987m3.7m/s-41.8°C0%0hPa0V00:00:0000:00:0000:00:00
WB7NNF2026-09-02 17:26:1247.83280-117.66782354°88km/h8888m3.5m/s-40.9°C0%0hPa0V00:00:0000:00:0000:00:00
WB7NNF2026-09-02 17:25:3047.82414-117.66495351°75km/h8681m5.1m/s-39.2°C0%0hPa0V00:00:0000:00:0000:00:00
WB7NNF2026-09-02 17:25:0947.82029-117.66272341°68km/h8550m8.6m/s-38.1°C0%0hPa0V00:00:0000:00:0000:00:00
WB7NNF2026-09-02 17:24:4747.81679-117.66112339°62km/h8430m6.2m/s-37.1°C0%0hPa0V00:00:0000:00:0000:00:00
WB7NNF2026-09-02 17:24:2447.81297-117.65907361°80km/h8288m4.6m/s-35.8°C0%0hPa0V00:00:0000:00:0000:00:00
WB7NNF2026-09-02 17:24:0447.80903-117.65690333°97km/h8170m4.9m/s-34.8°C0%0hPa0V00:00:0000:00:0000:00:00
WB7NNF2026-09-02 17:23:4347.80547-117.65456330°88km/h8047m5.2m/s-33.7°C0%0hPa0V00:00:0000:00:0000:00:00
WB7NNF2026-09-02 17:23:2347.80184-117.65214335°78km/h7941m6.4m/s-33.0°C0%0hPa0V00:00:0000:00:0000:00:00
WB7NNF2026-09-02 17:23:0247.79832-117.64959320°73km/h7832m4.1m/s-32.1°C0%0hPa0V00:00:0000:00:0000:00:00
WB7NNF2026-09-02 17:22:3247.79368-117.64618341°71km/h7666m7.4m/s-31.2°C0%0hPa0V00:00:0000:00:0000:00:00
WB7NNF2026-09-02 17:22:1247.78964-117.64368335°102km/h7536m4.8m/s-30.2°C0%0hPa0V00:00:0000:00:0000:00:00
WB7NNF2026-09-02 17:21:4647.78489-117.64106332°97km/h7360m7.8m/s-28.6°C0%0hPa0V00:00:0000:00:0000:00:00
WB7NNF2026-09-02 17:21:2547.78075-117.63936352°75km/h7227m7.3m/s-27.5°C0%0hPa0V00:00:0000:00:0000:00:00
WB7NNF2026-09-02 17:21:0347.77706-117.63716325°88km/h7100m2.4m/s-26.4°C0%0hPa0V00:00:0000:00:0000:00:00
WB7NNF2026-09-02 17:20:4047.77293-117.63503330°93km/h6956m6.3m/s-25.4°C0%0hPa0V00:00:0000:00:0000:00:00
WB7NNF2026-09-02 17:20:2047.76919-117.63260343°53km/h6835m4.4m/s-24.5°C0%0hPa0V00:00:0000:00:0000:00:00
WB7NNF2026-09-02 17:19:5947.76612-117.63063331°60km/h6720m5.9m/s-23.5°C0%0hPa0V00:00:0000:00:0000:00:00
WB7NNF2026-09-02 17:19:3247.76207-117.62817352°51km/h6548m4.3m/s-22.4°C0%0hPa0V00:00:0000:00:0000:00:00
WB7NNF2026-09-02 17:19:0947.75970-117.62629355°46km/h6448m4.1m/s-21.8°C0%0hPa0V00:00:0000:00:0000:00:00
WB7NNF2026-09-02 17:18:4947.75764-117.62414325°42km/h6333m7.6m/s-21.1°C0%0hPa0V00:00:0000:00:0000:00:00
WB7NNF2026-09-02 17:18:2847.75595-117.62175304°68km/h6205m4.1m/s-20.2°C0%0hPa0V00:00:0000:00:0000:00:00
WB7NNF2026-09-02 17:18:0747.75429-117.61928300°60km/h6094m3.8m/s-19.4°C0%0hPa0V00:00:0000:00:0000:00:00
WB7NNF2026-09-02 17:17:4747.75266-117.61651322°33km/h5981m7.5m/s-18.6°C0%0hPa0V00:00:0000:00:0000:00:00
WB7NNF2026-09-02 17:17:2647.75108-117.61426317°58km/h5862m4.8m/s-18.0°C0%0hPa0V00:00:0000:00:0000:00:00
WB7NNF2026-09-02 17:17:0447.74930-117.61210331°49km/h5724m5.8m/s-17.0°C0%0hPa0V00:00:0000:00:0000:00:00
WB7NNF2026-09-02 17:16:4247.74751-117.60969331°40km/h5592m5.1m/s-16.0°C0%0hPa0V00:00:0000:00:0000:00:00
WB7NNF2026-09-02 17:16:2147.74585-117.60709301°26km/h5464m5.9m/s-15.0°C0%0hPa0V00:00:0000:00:0000:00:00
WB7NNF2026-09-02 17:15:5947.74431-117.60423294°37km/h5339m4.6m/s-14.2°C0%0hPa0V00:00:0000:00:0000:00:00
WB7NNF2026-09-02 17:15:3847.74281-117.60147321°68km/h5238m5.1m/s-13.4°C0%0hPa0V00:00:0000:00:0000:00:00
WB7NNF2026-09-02 17:15:1747.74119-117.59920301°38km/h5105m5.4m/s-12.9°C0%0hPa0V00:00:0000:00:0000:00:00
WB7NNF2026-09-02 17:14:5747.73962-117.5976912°31km/h4987m1.6m/s-12.7°C0%0hPa0V00:00:0000:00:0000:00:00
WB7NNF2026-09-02 17:14:3647.73817-117.59782339°15km/h4885m4.3m/s-12.1°C0%0hPa0V00:00:0000:00:0000:00:00
WB7NNF2026-09-02 17:14:1647.73623-117.59810361°26km/h4780m3.9m/s-11.3°C0%0hPa0V00:00:0000:00:0000:00:00
WB7NNF2026-09-02 17:13:5547.73459-117.59899337°27km/h4696m6.0m/s-10.5°C0%0hPa0V00:00:0000:00:0000:00:00
WB7NNF2026-09-02 17:13:3347.73235-117.6000077km/h4576m5.3m/s-9.7°C0%0hPa0V00:00:0000:00:0000:00:00
WB7NNF2026-09-02 17:13:1347.72969-117.6012855km/h4439m7.0m/s-9.1°C0%0hPa0V00:00:0000:00:0000:00:00
WB7NNF2026-09-02 17:12:5047.72690-117.6033420°37km/h4284m4.9m/s-8.5°C0%0hPa0V00:00:0000:00:0000:00:00


GPX KML Map

© wettersonde.net (DO2JMG) - 2026  -  -